createdAt,value
2022-10-09T00:00:11.438Z,1.50
2022-10-09T00:02:42.254Z,1.80
2022-10-09T00:05:10.433Z,1.70
2022-10-09T00:07:39.762Z,1.90
2022-10-09T00:10:08.023Z,1.50
2022-10-09T00:12:35.897Z,1.80
2022-10-09T00:15:04.014Z,1.60
2022-10-09T00:17:31.871Z,1.60
2022-10-09T00:20:01.685Z,1.50
2022-10-09T00:22:29.598Z,1.50
2022-10-09T00:24:58.848Z,1.47
2022-10-09T00:27:26.885Z,1.50
2022-10-09T00:29:54.890Z,1.60
2022-10-09T00:32:22.786Z,1.67
2022-10-09T00:34:51.619Z,1.50
2022-10-09T00:37:19.533Z,1.40
2022-10-09T00:39:47.405Z,1.50
2022-10-09T00:42:16.651Z,1.30
2022-10-09T00:44:49.774Z,1.50
2022-10-09T00:47:19.922Z,1.57
2022-10-09T00:49:47.881Z,1.57
2022-10-09T00:52:15.773Z,1.50
2022-10-09T00:54:43.656Z,1.50
2022-10-09T00:57:11.644Z,1.47
2022-10-09T00:59:40.859Z,1.60
2022-10-09T01:02:08.812Z,1.50
2022-10-09T01:04:36.945Z,1.40
2022-10-09T01:07:26.923Z,1.50
2022-10-09T01:09:57.493Z,1.50
2022-10-09T01:12:35.333Z,1.57
2022-10-09T01:15:09.861Z,1.57
2022-10-09T01:17:42.242Z,1.30
2022-10-09T01:20:41.938Z,1.47
2022-10-09T01:23:39.197Z,1.53
2022-10-09T01:26:15.754Z,1.40
2022-10-09T01:28:46.442Z,1.60
2022-10-09T01:31:14.513Z,1.60
2022-10-09T01:33:42.408Z,1.60
2022-10-09T01:36:10.270Z,1.40
2022-10-09T01:38:38.160Z,1.73
2022-10-09T01:41:06.339Z,1.30
2022-10-09T01:43:34.185Z,1.23
2022-10-09T01:46:23.384Z,1.40
2022-10-09T01:48:55.348Z,1.30
2022-10-09T01:51:23.551Z,1.43
2022-10-09T01:53:51.405Z,1.50
2022-10-09T01:56:20.212Z,1.50
2022-10-09T01:58:49.827Z,1.33
2022-10-09T02:01:18.435Z,1.50
2022-10-09T02:03:48.997Z,1.40
2022-10-09T02:06:17.845Z,1.47
2022-10-09T02:08:46.678Z,1.60
2022-10-09T02:11:15.474Z,1.20
2022-10-09T02:13:43.587Z,1.57
2022-10-09T02:16:13.906Z,1.50
2022-10-09T02:18:43.477Z,1.20
2022-10-09T02:21:13.982Z,1.47
2022-10-09T02:23:41.962Z,1.40
2022-10-09T02:26:09.938Z,1.40
2022-10-09T02:28:40.458Z,1.20
2022-10-09T02:31:13.166Z,1.40
2022-10-09T02:33:41.099Z,1.40
2022-10-09T02:36:09.088Z,1.70
2022-10-09T02:38:38.315Z,1.30
2022-10-09T02:41:06.492Z,1.50
2022-10-09T02:43:34.377Z,1.20
2022-10-09T02:46:02.563Z,1.40
2022-10-09T02:48:30.523Z,1.50
2022-10-09T02:50:58.436Z,1.40
2022-10-09T02:53:26.297Z,1.30
2022-10-09T02:55:55.557Z,1.50
2022-10-09T02:58:23.526Z,1.60
2022-10-09T03:00:51.841Z,1.20
2022-10-09T03:03:19.788Z,1.40
2022-10-09T03:05:47.774Z,1.40
2022-10-09T03:08:15.667Z,1.30
2022-10-09T03:10:43.532Z,1.50
2022-10-09T03:13:12.755Z,1.70
2022-10-09T03:15:40.903Z,1.20
2022-10-09T03:18:08.846Z,1.30
2022-10-09T03:20:36.718Z,1.60
2022-10-09T03:23:04.586Z,1.20
2022-10-09T03:25:32.526Z,1.30
2022-10-09T03:28:00.411Z,1.30
2022-10-09T03:30:29.680Z,1.40
2022-10-09T03:32:57.579Z,1.30
2022-10-09T03:35:25.446Z,1.17
2022-10-09T03:37:53.351Z,1.40
2022-10-09T03:40:21.204Z,1.20
2022-10-09T03:42:49.292Z,1.30
2022-10-09T03:45:17.935Z,1.17
2022-10-09T03:47:47.185Z,1.30
2022-10-09T03:50:15.087Z,1.30
2022-10-09T03:52:42.999Z,1.50
2022-10-09T03:55:10.954Z,1.40
2022-10-09T03:57:38.849Z,1.40
2022-10-09T04:00:07.900Z,1.30
2022-10-09T04:02:35.993Z,1.20
2022-10-09T04:05:06.001Z,1.20
2022-10-09T04:07:34.424Z,1.37
2022-10-09T04:10:02.587Z,1.30
2022-10-09T04:12:30.474Z,1.43
2022-10-09T04:14:58.337Z,1.30
2022-10-09T04:17:26.224Z,1.30
2022-10-09T04:19:54.136Z,0.97
2022-10-09T04:22:23.338Z,1.23
2022-10-09T04:24:51.231Z,1.50
2022-10-09T04:27:19.079Z,1.27
2022-10-09T04:29:46.940Z,1.30
2022-10-09T04:32:14.828Z,1.30
2022-10-09T04:34:42.699Z,1.23
2022-10-09T04:37:10.551Z,1.13
2022-10-09T04:39:39.793Z,1.30
2022-10-09T04:42:08.017Z,1.20
2022-10-09T04:44:35.889Z,1.20
2022-10-09T04:47:04.805Z,1.27
2022-10-09T04:49:34.106Z,1.20
2022-10-09T04:52:01.996Z,1.20
2022-10-09T04:54:29.877Z,1.10
2022-10-09T04:56:59.094Z,1.10
2022-10-09T04:59:26.979Z,1.30
2022-10-09T05:01:54.901Z,1.20
2022-10-09T05:04:22.846Z,1.00
2022-10-09T05:06:50.737Z,1.20
2022-10-09T05:09:18.927Z,1.07
2022-10-09T05:11:46.792Z,1.20
2022-10-09T05:14:16.001Z,1.20
2022-10-09T05:17:08.112Z,1.00
2022-10-09T05:19:31.944Z,1.10
2022-10-09T05:21:59.941Z,1.17
2022-10-09T05:24:27.984Z,1.20
2022-10-09T05:26:55.857Z,1.00
2022-10-09T05:29:25.086Z,1.00
2022-10-09T05:31:52.968Z,1.27
2022-10-09T05:34:20.973Z,1.07
2022-10-09T05:36:48.850Z,1.20
2022-10-09T05:39:17.458Z,1.27
2022-10-09T05:41:45.364Z,1.10
2022-10-09T05:44:13.262Z,1.00
2022-10-09T05:46:42.505Z,1.40
2022-10-09T05:49:11.917Z,1.23
2022-10-09T05:51:40.317Z,1.10
2022-10-09T05:54:08.203Z,1.20
2022-10-09T05:56:37.003Z,1.20
2022-10-09T05:59:06.146Z,1.10
2022-10-09T06:01:34.923Z,1.20
2022-10-09T06:04:04.446Z,1.00
2022-10-09T06:06:33.272Z,1.10
2022-10-09T06:09:01.206Z,1.07
2022-10-09T06:11:31.530Z,1.20
2022-10-09T06:13:59.947Z,1.13
2022-10-09T06:16:29.592Z,1.13
2022-10-09T06:18:57.583Z,1.03
2022-10-09T06:21:26.911Z,1.10
2022-10-09T06:23:57.452Z,1.00
2022-10-09T06:26:25.657Z,1.10
2022-10-09T06:28:53.850Z,1.20
2022-10-09T06:31:23.307Z,1.43
2022-10-09T06:33:51.684Z,1.03
2022-10-09T06:36:20.470Z,1.10
2022-10-09T06:38:49.741Z,1.03
2022-10-09T06:41:18.926Z,1.10
2022-10-09T06:43:49.593Z,1.07
2022-10-09T06:46:17.524Z,1.00
2022-10-09T06:48:45.429Z,1.10
2022-10-09T06:51:13.985Z,1.10
2022-10-09T06:53:43.124Z,1.10
2022-10-09T06:56:12.365Z,1.20
2022-10-09T06:58:40.562Z,1.20
2022-10-09T07:01:09.299Z,1.00
2022-10-09T07:03:37.517Z,1.10
2022-10-09T07:06:09.655Z,1.17
2022-10-09T07:08:37.530Z,1.10
2022-10-09T07:11:14.470Z,1.23
2022-10-09T07:13:42.442Z,1.43
2022-10-09T07:16:10.614Z,0.90
2022-10-09T07:18:38.991Z,1.33
2022-10-09T07:21:08.257Z,1.13
2022-10-09T07:23:36.405Z,1.10
2022-10-09T07:26:10.651Z,0.93
2022-10-09T07:28:40.085Z,1.07
2022-10-09T07:31:08.174Z,1.00
2022-10-09T07:33:36.121Z,0.90
2022-10-09T07:36:04.542Z,1.00
2022-10-09T07:38:35.366Z,1.00
2022-10-09T07:41:03.588Z,1.20
2022-10-09T07:43:31.500Z,1.20
2022-10-09T07:46:01.372Z,1.20
2022-10-09T07:48:29.339Z,1.10
2022-10-09T07:50:57.274Z,1.10
2022-10-09T07:53:25.224Z,1.20
2022-10-09T07:55:53.086Z,1.10
2022-10-09T07:58:20.946Z,0.90
2022-10-09T08:00:49.139Z,1.10
2022-10-09T08:03:18.366Z,1.00
2022-10-09T08:05:46.255Z,1.00
2022-10-09T08:08:14.110Z,1.13
2022-10-09T08:10:42.019Z,1.13
2022-10-09T08:13:09.890Z,1.10
2022-10-09T08:15:41.422Z,1.00
2022-10-09T08:18:09.345Z,1.30
2022-10-09T08:20:38.595Z,0.90
2022-10-09T08:23:06.660Z,1.20
2022-10-09T08:25:35.448Z,1.10
2022-10-09T08:28:03.465Z,1.10
2022-10-09T08:30:31.403Z,1.50
2022-10-09T08:32:59.313Z,1.53
2022-10-09T08:35:29.975Z,2.33
2022-10-09T08:38:01.607Z,11.43
2022-10-09T08:40:33.133Z,34.90
2022-10-09T08:43:04.443Z,9.23
2022-10-09T08:45:32.344Z,9.83
2022-10-09T08:48:01.365Z,7.90
2022-10-09T08:50:30.310Z,7.77
2022-10-09T08:53:01.921Z,7.50
2022-10-09T08:55:30.814Z,3.63
2022-10-09T08:58:02.995Z,3.93
2022-10-09T09:00:34.841Z,3.67
2022-10-09T09:03:30.719Z,4.67
2022-10-09T09:06:00.740Z,4.47
2022-10-09T09:08:32.912Z,6.33
2022-10-09T09:11:08.084Z,4.57
2022-10-09T09:13:41.762Z,2.20
2022-10-09T09:16:12.937Z,3.07
2022-10-09T09:18:43.439Z,3.90
2022-10-09T09:21:17.781Z,3.87
2022-10-09T09:23:48.084Z,7.57
2022-10-09T09:26:17.533Z,2.47
2022-10-09T09:28:45.536Z,5.07
2022-10-09T09:31:17.053Z,4.10
2022-10-09T09:33:46.617Z,3.20
2022-10-09T09:36:17.833Z,4.13
2022-10-09T09:39:13.536Z,4.77
2022-10-09T09:41:34.919Z,9.90
2022-10-09T09:44:02.860Z,9.00
2022-10-09T09:46:31.601Z,5.27
2022-10-09T09:48:59.539Z,4.60
2022-10-09T09:51:29.550Z,2.70
2022-10-09T09:54:00.112Z,2.97
2022-10-09T09:56:53.224Z,6.20
2022-10-09T09:59:33.660Z,6.53
2022-10-09T10:02:03.116Z,3.77
2022-10-09T10:04:31.051Z,4.70
2022-10-09T10:06:58.914Z,4.20
2022-10-09T10:09:28.154Z,3.70
2022-10-09T10:11:57.958Z,5.10
2022-10-09T10:14:25.892Z,4.73
2022-10-09T10:16:54.788Z,6.03
2022-10-09T10:19:23.506Z,7.03
2022-10-09T10:21:56.775Z,4.17
2022-10-09T10:24:27.678Z,3.47
2022-10-09T10:26:59.494Z,5.43
2022-10-09T10:29:30.606Z,5.47
2022-10-09T10:32:01.102Z,3.23
2022-10-09T10:34:31.831Z,5.17
2022-10-09T10:37:03.401Z,3.00
2022-10-09T10:39:35.166Z,2.23
2022-10-09T10:42:04.598Z,2.73
2022-10-09T10:44:39.141Z,3.13
2022-10-09T10:47:08.112Z,7.47
2022-10-09T10:49:36.298Z,2.67
2022-10-09T10:52:17.574Z,2.83
2022-10-09T10:54:49.919Z,2.50
2022-10-09T10:57:22.318Z,3.77
2022-10-09T10:59:54.870Z,3.47
2022-10-09T11:03:12.840Z,4.67
2022-10-09T11:05:47.571Z,2.80
2022-10-09T11:08:23.397Z,3.00
2022-10-09T11:10:58.103Z,2.70
2022-10-09T11:13:29.780Z,2.83
2022-10-09T11:16:02.693Z,2.50
2022-10-09T11:18:37.069Z,5.00
2022-10-09T11:21:09.939Z,5.13
2022-10-09T11:23:45.231Z,2.27
2022-10-09T11:26:18.840Z,3.80
2022-10-09T11:28:51.284Z,2.80
2022-10-09T11:31:20.753Z,2.43
2022-10-09T11:33:51.686Z,3.20
2022-10-09T11:36:21.294Z,3.27
2022-10-09T11:38:51.858Z,2.77
2022-10-09T11:41:19.821Z,2.50
2022-10-09T11:43:56.150Z,2.13
2022-10-09T11:46:29.358Z,2.60
2022-10-09T11:49:02.211Z,3.00
2022-10-09T11:51:31.576Z,2.57
2022-10-09T11:53:59.487Z,2.40
2022-10-09T11:56:28.205Z,2.73
2022-10-09T11:59:01.247Z,2.33
2022-10-09T12:01:32.577Z,2.53
2022-10-09T12:04:05.421Z,1.80
2022-10-09T12:06:33.527Z,2.10
2022-10-09T12:09:02.447Z,3.33
2022-10-09T12:11:30.434Z,2.20
2022-10-09T12:14:00.566Z,1.87
2022-10-09T12:16:33.927Z,2.20
2022-10-09T12:19:02.555Z,2.17
2022-10-09T12:21:32.932Z,2.03
2022-10-09T12:24:00.835Z,2.33
2022-10-09T12:26:28.705Z,2.13
2022-10-09T12:28:57.511Z,2.60
2022-10-09T12:31:30.097Z,1.83
2022-10-09T12:34:00.239Z,2.17
2022-10-09T12:36:29.128Z,2.70
2022-10-09T12:38:57.056Z,2.10
2022-10-09T12:41:25.828Z,2.50
2022-10-09T12:43:54.375Z,2.70
2022-10-09T12:46:31.592Z,3.43
2022-10-09T12:48:59.580Z,5.47
2022-10-09T12:51:28.137Z,7.20
2022-10-09T12:53:56.081Z,9.20
2022-10-09T12:56:25.682Z,5.93
2022-10-09T12:58:53.538Z,8.83
2022-10-09T13:01:21.496Z,10.40
2022-10-09T13:03:57.523Z,10.87
2022-10-09T13:06:27.687Z,9.57
2022-10-09T13:08:56.505Z,14.00
2022-10-09T13:11:26.444Z,7.90
2022-10-09T13:13:54.762Z,8.37
2022-10-09T13:16:22.853Z,9.83
2022-10-09T13:18:58.161Z,8.70
2022-10-09T13:21:31.343Z,11.50
2022-10-09T13:24:08.333Z,10.20
2022-10-09T13:26:36.215Z,11.73
2022-10-09T13:29:04.117Z,11.33
2022-10-09T13:31:33.666Z,9.97
2022-10-09T13:34:03.126Z,9.83
2022-10-09T13:36:30.991Z,11.43
2022-10-09T13:38:58.853Z,10.67
2022-10-09T13:41:26.714Z,11.17
2022-10-09T13:43:54.640Z,8.67
2022-10-09T13:46:22.592Z,8.03
2022-10-09T13:48:50.551Z,8.17
2022-10-09T13:51:19.783Z,10.60
2022-10-09T13:53:47.657Z,12.57
2022-10-09T13:56:15.520Z,8.87
2022-10-09T13:58:43.391Z,10.93
2022-10-09T14:01:11.334Z,10.43
2022-10-09T14:03:40.396Z,9.17
2022-10-09T14:06:08.640Z,7.80
2022-10-09T14:08:38.047Z,8.80
2022-10-09T14:11:06.233Z,10.23
2022-10-09T14:13:34.107Z,7.03
2022-10-09T14:16:05.564Z,7.87
2022-10-09T14:18:33.456Z,8.93
2022-10-09T14:21:01.376Z,7.80
2022-10-09T14:23:29.264Z,7.90
2022-10-09T14:26:03.875Z,6.87
2022-10-09T14:28:31.840Z,9.90
2022-10-09T14:30:59.819Z,9.87
2022-10-09T14:33:27.706Z,6.23
2022-10-09T14:35:55.566Z,7.07
2022-10-09T14:38:23.487Z,8.37
2022-10-09T14:40:51.475Z,19.43
2022-10-09T14:43:22.685Z,7.43
2022-10-09T14:45:50.590Z,5.93
2022-10-09T14:48:18.474Z,7.17
2022-10-09T14:50:46.374Z,5.83
2022-10-09T14:53:14.296Z,3.77
2022-10-09T14:55:44.733Z,2.80
2022-10-09T14:58:12.603Z,3.37
2022-10-09T15:00:47.719Z,5.63
2022-10-09T15:03:15.601Z,3.47
2022-10-09T15:05:43.487Z,4.00
2022-10-09T15:08:11.354Z,3.20
2022-10-09T15:10:39.213Z,2.20
2022-10-09T15:13:07.093Z,3.23
2022-10-09T15:15:34.953Z,2.73
2022-10-09T15:18:04.214Z,2.30
2022-10-09T15:20:32.140Z,2.47
2022-10-09T15:23:00.016Z,2.30
2022-10-09T15:25:31.412Z,2.47
2022-10-09T15:28:01.375Z,2.30
2022-10-09T15:30:29.475Z,2.20
2022-10-09T15:32:57.427Z,2.60
2022-10-09T15:35:29.855Z,2.17
2022-10-09T15:37:57.946Z,2.10
2022-10-09T15:40:25.856Z,2.00
2022-10-09T15:42:53.776Z,1.80
2022-10-09T15:45:21.667Z,1.93
2022-10-09T15:47:51.347Z,2.50
2022-10-09T15:50:19.565Z,1.73
2022-10-09T15:52:49.079Z,1.90
2022-10-09T15:55:17.392Z,2.00
2022-10-09T15:57:45.320Z,1.90
2022-10-09T16:00:14.227Z,2.30
2022-10-09T16:02:42.309Z,1.83
2022-10-09T16:05:10.530Z,2.13
2022-10-09T16:07:38.493Z,1.87
2022-10-09T16:10:08.591Z,1.97
2022-10-09T16:12:36.491Z,2.00
2022-10-09T16:15:04.476Z,2.20
2022-10-09T16:17:32.362Z,2.40
2022-10-09T16:20:00.850Z,8.30
2022-10-09T16:22:28.737Z,3.37
2022-10-09T16:24:56.670Z,2.20
2022-10-09T16:27:25.941Z,4.70
2022-10-09T16:29:53.830Z,3.37
2022-10-09T16:32:22.001Z,4.00
2022-10-09T16:34:50.124Z,2.40
2022-10-09T16:37:17.981Z,5.03
2022-10-09T16:39:46.220Z,2.50
2022-10-09T16:42:14.523Z,2.07
2022-10-09T16:44:43.970Z,2.03
2022-10-09T16:47:13.051Z,3.10
2022-10-09T16:49:40.979Z,2.20
2022-10-09T16:52:08.835Z,3.23
2022-10-09T16:54:36.743Z,3.10
2022-10-09T16:57:04.755Z,3.17
2022-10-09T16:59:32.742Z,2.10
2022-10-09T17:02:03.167Z,2.50
2022-10-09T17:04:31.082Z,2.20
2022-10-09T17:06:58.957Z,1.83
2022-10-09T17:09:29.378Z,1.97
2022-10-09T17:11:57.273Z,2.10
2022-10-09T17:14:25.125Z,2.27
2022-10-09T17:16:53.001Z,1.87
2022-10-09T17:19:22.197Z,1.93
2022-10-09T17:21:50.096Z,2.17
2022-10-09T17:24:17.996Z,2.23
2022-10-09T17:26:45.887Z,2.30
2022-10-09T17:29:13.916Z,2.30
2022-10-09T17:31:41.850Z,2.20
2022-10-09T17:34:09.834Z,1.80
2022-10-09T17:36:40.032Z,2.10
2022-10-09T17:39:09.435Z,2.20
2022-10-09T17:41:37.325Z,2.20
2022-10-09T17:44:05.324Z,1.83
2022-10-09T17:46:33.224Z,2.00
2022-10-09T17:49:01.152Z,2.07
2022-10-09T17:51:29.872Z,2.17
2022-10-09T17:54:00.919Z,2.03
2022-10-09T17:56:29.268Z,2.20
2022-10-09T17:58:57.133Z,2.00
2022-10-09T18:01:25.120Z,2.07
2022-10-09T18:03:53.058Z,2.10
2022-10-09T18:06:22.774Z,2.10
2022-10-09T18:08:52.761Z,2.17
2022-10-09T18:11:22.264Z,2.00
2022-10-09T18:13:50.162Z,2.17
2022-10-09T18:16:19.379Z,1.90
2022-10-09T18:18:47.285Z,2.00
2022-10-09T18:21:16.864Z,1.83
2022-10-09T18:23:44.874Z,2.10
2022-10-09T18:26:13.744Z,2.10
2022-10-09T18:28:46.039Z,1.80
2022-10-09T18:31:17.428Z,2.07
2022-10-09T18:33:45.439Z,1.80
2022-10-09T18:36:19.377Z,2.00
2022-10-09T18:38:48.225Z,1.90
2022-10-09T18:41:16.151Z,1.80
2022-10-09T18:43:45.386Z,2.33
2022-10-09T18:46:13.231Z,1.87
2022-10-09T18:48:41.248Z,1.90
2022-10-09T18:51:14.487Z,1.43
2022-10-09T18:53:43.158Z,1.60
2022-10-09T18:56:11.046Z,2.10
2022-10-09T18:58:39.434Z,1.90
2022-10-09T19:01:08.797Z,2.43
2022-10-09T19:03:37.452Z,1.83
2022-10-09T19:06:05.749Z,1.87
2022-10-09T19:08:34.556Z,1.70
2022-10-09T19:11:02.499Z,1.80
2022-10-09T19:13:30.409Z,1.90
2022-10-09T19:15:59.267Z,1.80
2022-10-09T19:18:28.623Z,2.30
2022-10-09T19:20:56.494Z,1.90
2022-10-09T19:23:24.389Z,1.80
2022-10-09T19:25:53.985Z,1.80
2022-10-09T19:28:22.389Z,1.90
2022-10-09T19:30:50.470Z,1.80
2022-10-09T19:33:18.378Z,1.87
2022-10-09T19:35:48.378Z,2.20
2022-10-09T19:38:16.275Z,1.97
2022-10-09T19:40:44.220Z,1.83
2022-10-09T19:43:12.566Z,2.10
2022-10-09T19:45:40.473Z,1.90
2022-10-09T19:48:08.562Z,1.80
2022-10-09T19:50:40.604Z,1.83
2022-10-09T19:53:09.855Z,1.80
2022-10-09T19:55:37.807Z,1.87
2022-10-09T19:58:06.577Z,1.83
2022-10-09T20:00:34.413Z,1.87
2022-10-09T20:03:02.298Z,2.03
2022-10-09T20:05:30.222Z,1.60
2022-10-09T20:07:58.130Z,1.80
2022-10-09T20:10:28.419Z,2.07
2022-10-09T20:12:56.314Z,1.80
2022-10-09T20:15:24.191Z,1.90
2022-10-09T20:17:52.455Z,1.87
2022-10-09T20:20:20.443Z,1.83
2022-10-09T20:22:48.591Z,2.00
2022-10-09T20:25:17.844Z,1.80
2022-10-09T20:27:47.063Z,1.80
2022-10-09T20:30:15.114Z,1.77
2022-10-09T20:32:43.040Z,2.10
2022-10-09T20:35:10.980Z,1.77
2022-10-09T20:37:38.918Z,1.77
2022-10-09T20:40:07.501Z,1.67
2022-10-09T20:42:35.464Z,1.90
2022-10-09T20:45:05.074Z,1.70
2022-10-09T20:47:32.932Z,1.87
2022-10-09T20:50:00.976Z,1.70
2022-10-09T20:52:28.852Z,1.50
2022-10-09T20:54:56.714Z,1.80
2022-10-09T20:57:25.402Z,1.87
2022-10-09T20:59:53.283Z,1.90
2022-10-09T21:02:22.521Z,1.90
2022-10-09T21:04:50.513Z,1.60
2022-10-09T21:07:18.369Z,1.70
2022-10-09T21:09:46.511Z,1.60
2022-10-09T21:12:14.349Z,1.63
2022-10-09T21:14:42.215Z,1.60
2022-10-09T21:17:10.112Z,1.60
2022-10-09T21:19:39.356Z,1.80
2022-10-09T21:22:07.205Z,1.87
2022-10-09T21:24:35.072Z,1.73
2022-10-09T21:27:02.946Z,1.90
2022-10-09T21:29:30.817Z,1.77
2022-10-09T21:31:58.671Z,1.70
2022-10-09T21:34:26.664Z,1.67
2022-10-09T21:37:19.793Z,1.80
2022-10-09T21:39:43.813Z,1.50
2022-10-09T21:42:11.720Z,1.80
2022-10-09T21:44:39.619Z,1.60
2022-10-09T21:47:07.479Z,1.80
2022-10-09T21:49:35.454Z,1.60
2022-10-09T21:52:04.680Z,1.73
2022-10-09T21:54:32.638Z,1.60
2022-10-09T21:57:00.507Z,1.80
2022-10-09T21:59:28.607Z,1.93
2022-10-09T22:01:56.615Z,1.50
2022-10-09T22:04:24.494Z,1.73
2022-10-09T22:06:52.453Z,1.70
2022-10-09T22:09:21.895Z,1.67
2022-10-09T22:11:49.770Z,1.70
2022-10-09T22:14:17.660Z,1.70
2022-10-09T22:16:45.481Z,1.40
2022-10-09T22:19:13.628Z,1.73
2022-10-09T22:21:41.525Z,1.60
2022-10-09T22:24:09.478Z,1.70
2022-10-09T22:26:38.821Z,1.63
2022-10-09T22:29:07.096Z,1.80
2022-10-09T22:31:35.077Z,1.70
2022-10-09T22:34:03.306Z,1.50
2022-10-09T22:36:32.113Z,1.60
2022-10-09T22:39:01.244Z,1.80
2022-10-09T22:41:29.499Z,1.60
2022-10-09T22:43:59.814Z,1.50
2022-10-09T22:46:28.708Z,1.60
2022-10-09T22:48:56.654Z,1.60
2022-10-09T22:51:25.076Z,1.50
2022-10-09T22:53:53.002Z,1.53
2022-10-09T22:56:21.815Z,1.63
2022-10-09T22:58:50.014Z,1.50
2022-10-09T23:01:20.848Z,1.60
2022-10-09T23:03:48.758Z,1.57
2022-10-09T23:06:17.596Z,1.57
2022-10-09T23:08:46.347Z,1.30
2022-10-09T23:11:14.503Z,1.57
2022-10-09T23:13:42.387Z,1.50
2022-10-09T23:16:11.408Z,1.60
2022-10-09T23:18:40.675Z,1.33
2022-10-09T23:21:09.725Z,1.30
2022-10-09T23:23:37.707Z,1.53
2022-10-09T23:26:05.725Z,1.67
2022-10-09T23:28:33.671Z,1.50
2022-10-09T23:31:02.512Z,1.50
2022-10-09T23:33:30.370Z,1.50
2022-10-09T23:35:59.617Z,1.60
2022-10-09T23:38:27.478Z,1.80
2022-10-09T23:40:56.391Z,1.43
2022-10-09T23:43:24.368Z,1.70
2022-10-09T23:45:52.453Z,1.70
2022-10-09T23:48:20.323Z,1.40
2022-10-09T23:50:48.955Z,1.30
2022-10-09T23:53:18.176Z,1.60
2022-10-09T23:55:46.074Z,1.60
2022-10-09T23:58:18.448Z,1.67
